sensor_id;sensor_type;location;lat;lon;timestamp;pressure;altitude;pressure_sealevel;temperature;humidity
50590;BME280;36547;50.514;30.840;2023-09-08T00:00:36;101122.73;;;12.98;61.11
50590;BME280;36547;50.514;30.840;2023-09-08T00:01:39;101138.65;;;13.00;61.16
50590;BME280;36547;50.514;30.840;2023-09-08T00:02:41;101129.14;;;12.94;61.49
50590;BME280;36547;50.514;30.840;2023-09-08T00:03:44;101135.22;;;12.98;61.53
50590;BME280;36547;50.514;30.840;2023-09-08T00:04:46;101130.02;;;12.95;61.64
50590;BME280;36547;50.514;30.840;2023-09-08T00:05:49;101129.21;;;12.93;61.64
50590;BME280;36547;50.514;30.840;2023-09-08T00:06:51;101131.08;;;12.91;61.66
50590;BME280;36547;50.514;30.840;2023-09-08T00:07:54;101124.87;;;12.90;61.79
50590;BME280;36547;50.514;30.840;2023-09-08T00:08:56;101132.88;;;12.90;61.64
50590;BME280;36547;50.514;30.840;2023-09-08T00:09:59;101134.68;;;12.90;61.72
50590;BME280;36547;50.514;30.840;2023-09-08T00:11:01;101131.08;;;12.91;61.72
50590;BME280;36547;50.514;30.840;2023-09-08T00:12:04;101131.21;;;12.88;61.92
50590;BME280;36547;50.514;30.840;2023-09-08T00:13:06;101139.14;;;12.89;61.90
50590;BME280;36547;50.514;30.840;2023-09-08T00:14:09;101141.02;;;12.87;61.97
50590;BME280;36547;50.514;30.840;2023-09-08T00:15:11;101140.31;;;12.84;62.04
50590;BME280;36547;50.514;30.840;2023-09-08T00:16:14;101142.02;;;12.85;61.86
50590;BME280;36547;50.514;30.840;2023-09-08T00:17:17;101143.91;;;12.83;61.93
50590;BME280;36547;50.514;30.840;2023-09-08T00:18:19;101137.71;;;12.82;61.97
50590;BME280;36547;50.514;30.840;2023-09-08T00:19:22;101134.98;;;12.84;62.03
50590;BME280;36547;50.514;30.840;2023-09-08T00:20:24;101138.70;;;12.80;62.17
50590;BME280;36547;50.514;30.840;2023-09-08T00:21:27;101128.84;;;12.82;62.22
50590;BME280;36547;50.514;30.840;2023-09-08T00:22:29;101128.17;;;12.77;62.14
50590;BME280;36547;50.514;30.840;2023-09-08T00:23:31;101130.77;;;12.78;62.11
50590;BME280;36547;50.514;30.840;2023-09-08T00:24:34;101137.71;;;12.82;62.16
50590;BME280;36547;50.514;30.840;2023-09-08T00:25:36;101132.57;;;12.78;62.36
50590;BME280;36547;50.514;30.840;2023-09-08T00:26:39;101137.11;;;12.75;62.39
50590;BME280;36547;50.514;30.840;2023-09-08T00:27:41;101130.91;;;12.75;62.40
50590;BME280;36547;50.514;30.840;2023-09-08T00:28:45;101136.37;;;12.72;62.40
50590;BME280;36547;50.514;30.840;2023-09-08T00:29:47;101138.23;;;12.70;62.37
50590;BME280;36547;50.514;30.840;2023-09-08T00:30:50;101144.53;;;12.69;62.48
50590;BME280;36547;50.514;30.840;2023-09-08T00:31:53;101138.23;;;12.70;62.40
50590;BME280;36547;50.514;30.840;2023-09-08T00:32:55;101139.27;;;12.67;62.49
50590;BME280;36547;50.514;30.840;2023-09-08T00:33:58;101137.53;;;12.66;62.50
50590;BME280;36547;50.514;30.840;2023-09-08T00:35:01;101138.33;;;12.68;62.39
50590;BME280;36547;50.514;30.840;2023-09-08T00:36:04;101134.06;;;12.64;62.35
50590;BME280;36547;50.514;30.840;2023-09-08T00:37:07;101129.59;;;12.65;62.26
50590;BME280;36547;50.514;30.840;2023-09-08T00:38:09;101138.52;;;12.64;62.25
50590;BME280;36547;50.514;30.840;2023-09-08T00:39:11;101129.66;;;12.63;62.41
50590;BME280;36547;50.514;30.840;2023-09-08T00:40:15;101134.19;;;12.61;62.52
50590;BME280;36547;50.514;30.840;2023-09-08T00:41:17;101127.98;;;12.61;62.37
50590;BME280;36547;50.514;30.840;2023-09-08T00:42:19;101129.72;;;12.62;62.48
50590;BME280;36547;50.514;30.840;2023-09-08T00:43:22;101123.52;;;12.61;62.71
50590;BME280;36547;50.514;30.840;2023-09-08T00:44:24;101129.72;;;12.62;62.61
50590;BME280;36547;50.514;30.840;2023-09-08T00:45:28;101121.78;;;12.60;62.64
50590;BME280;36547;50.514;30.840;2023-09-08T00:46:32;101125.52;;;12.56;62.70
50590;BME280;36547;50.514;30.840;2023-09-08T00:47:36;101127.25;;;12.57;62.85
50590;BME280;36547;50.514;30.840;2023-09-08T00:48:38;101126.61;;;12.52;62.93
50590;BME280;36547;50.514;30.840;2023-09-08T00:49:41;101126.67;;;12.51;62.97
50590;BME280;36547;50.514;30.840;2023-09-08T00:50:43;101121.27;;;12.52;63.02
50590;BME280;36547;50.514;30.840;2023-09-08T00:51:46;101129.41;;;12.49;63.18
50590;BME280;36547;50.514;30.840;2023-09-08T00:52:49;101127.67;;;12.48;63.14
50590;BME280;36547;50.514;30.840;2023-09-08T00:53:53;101128.59;;;12.47;63.11
50590;BME280;36547;50.514;30.840;2023-09-08T00:54:55;101126.99;;;12.43;63.07
50590;BME280;36547;50.514;30.840;2023-09-08T00:55:59;101126.19;;;12.41;63.04
50590;BME280;36547;50.514;30.840;2023-09-08T00:57:02;101128.08;;;12.39;63.08
50590;BME280;36547;50.514;30.840;2023-09-08T00:58:04;101123.62;;;12.39;63.19
50590;BME280;36547;50.514;30.840;2023-09-08T00:59:08;101123.74;;;12.36;63.24
50590;BME280;36547;50.514;30.840;2023-09-08T01:00:12;101131.00;;;12.33;63.29
50590;BME280;36547;50.514;30.840;2023-09-08T01:01:15;101128.27;;;12.34;63.40
50590;BME280;36547;50.514;30.840;2023-09-08T01:02:18;101126.47;;;12.35;63.33
50590;BME280;36547;50.514;30.840;2023-09-08T01:03:21;101130.06;;;12.34;63.49
50590;BME280;36547;50.514;30.840;2023-09-08T01:04:24;101119.41;;;12.34;63.67
50590;BME280;36547;50.514;30.840;2023-09-08T01:05:26;101125.73;;;12.31;63.62
50590;BME280;36547;50.514;30.840;2023-09-08T01:06:30;101121.20;;;12.33;63.64
50590;BME280;36547;50.514;30.840;2023-09-08T01:07:35;101127.41;;;12.34;63.68
50590;BME280;36547;50.514;30.840;2023-09-08T01:08:37;101129.33;;;12.30;63.75
50590;BME280;36547;50.514;30.840;2023-09-08T01:09:40;101128.45;;;12.30;63.74
50590;BME280;36547;50.514;30.840;2023-09-08T01:10:45;101125.86;;;12.28;63.80
50590;BME280;36547;50.514;30.840;2023-09-08T01:11:48;101131.19;;;12.28;63.76
50590;BME280;36547;50.514;30.840;2023-09-08T01:12:51;101136.58;;;12.27;63.67
50590;BME280;36547;50.514;30.840;2023-09-08T01:13:53;101132.21;;;12.26;63.60
50590;BME280;36547;50.514;30.840;2023-09-08T01:14:56;101133.14;;;12.25;63.64
50590;BME280;36547;50.514;30.840;2023-09-08T01:15:58;101134.87;;;12.26;63.35
50590;BME280;36547;50.514;30.840;2023-09-08T01:17:01;101134.07;;;12.24;63.25
50590;BME280;36547;50.514;30.840;2023-09-08T01:18:05;101134.07;;;12.24;63.22
50590;BME280;36547;50.514;30.840;2023-09-08T01:19:10;101128.00;;;12.20;63.42
50590;BME280;36547;50.514;30.840;2023-09-08T01:20:24;101132.27;;;12.24;63.43
50590;BME280;36547;50.514;30.840;2023-09-08T01:25:31;101128.20;;;12.36;63.39
50590;BME280;36547;50.514;30.840;2023-09-08T01:26:37;101130.20;;;12.11;63.78
50590;BME280;36547;50.514;30.840;2023-09-08T01:27:45;101124.77;;;12.12;63.45
50590;BME280;36547;50.514;30.840;2023-09-08T01:28:49;101135.31;;;12.15;63.55
50590;BME280;36547;50.514;30.840;2023-09-08T01:29:53;101130.10;;;12.12;63.66
50590;BME280;36547;50.514;30.840;2023-09-08T01:30:56;101126.61;;;12.12;63.80
50590;BME280;36547;50.514;30.840;2023-09-08T01:32:00;101128.41;;;12.11;63.71
50590;BME280;36547;50.514;30.840;2023-09-08T01:33:02;101127.38;;;12.14;63.54
50590;BME280;36547;50.514;30.840;2023-09-08T01:34:05;101127.53;;;12.11;63.66
50590;BME280;36547;50.514;30.840;2023-09-08T01:35:08;101123.94;;;12.12;63.69
50590;BME280;36547;50.514;30.840;2023-09-08T01:36:12;101136.30;;;12.13;63.58
50590;BME280;36547;50.514;30.840;2023-09-08T01:37:15;101131.78;;;12.15;63.49
50590;BME280;36547;50.514;30.840;2023-09-08T01:38:21;101132.70;;;12.14;63.43
50590;BME280;36547;50.514;30.840;2023-09-08T01:39:23;101127.53;;;12.11;63.45
50590;BME280;36547;50.514;30.840;2023-09-08T01:40:28;101131.13;;;12.10;63.64
50590;BME280;36547;50.514;30.840;2023-09-08T01:41:30;101134.72;;;12.09;63.66
50590;BME280;36547;50.514;30.840;2023-09-08T01:42:34;101131.13;;;12.10;63.69
50590;BME280;36547;50.514;30.840;2023-09-08T01:43:37;101132.98;;;12.08;63.71
50590;BME280;36547;50.514;30.840;2023-09-08T01:44:39;101138.31;;;12.08;63.59
50590;BME280;36547;50.514;30.840;2023-09-08T01:45:42;101129.52;;;12.06;63.75
50590;BME280;36547;50.514;30.840;2023-09-08T01:46:44;101129.52;;;12.06;63.79
50590;BME280;36547;50.514;30.840;2023-09-08T01:47:47;101135.77;;;12.04;63.90
50590;BME280;36547;50.514;30.840;2023-09-08T01:48:50;101134.91;;;12.04;63.85
50590;BME280;36547;50.514;30.840;2023-09-08T01:49:52;101132.30;;;12.02;63.78
50590;BME280;36547;50.514;30.840;2023-09-08T01:50:56;101135.23;;;11.96;63.60
50590;BME280;36547;50.514;30.840;2023-09-08T01:51:58;101133.50;;;11.95;63.59
50590;BME280;36547;50.514;30.840;2023-09-08T01:53:01;101128.02;;;11.98;63.75
50590;BME280;36547;50.514;30.840;2023-09-08T01:54:03;101133.11;;;12.04;63.87
50590;BME280;36547;50.514;30.840;2023-09-08T01:55:06;101131.38;;;12.03;64.03
50590;BME280;36547;50.514;30.840;2023-09-08T01:56:09;101126.91;;;12.04;64.12
50590;BME280;36547;50.514;30.840;2023-09-08T01:57:12;101130.50;;;12.03;64.12
50590;BME280;36547;50.514;30.840;2023-09-08T01:58:15;101129.58;;;12.04;64.10
50590;BME280;36547;50.514;30.840;2023-09-08T01:59:18;101127.03;;;12.01;64.17
50590;BME280;36547;50.514;30.840;2023-09-08T02:00:21;101129.64;;;12.02;64.20
50590;BME280;36547;50.514;30.840;2023-09-08T02:01:23;101129.70;;;12.01;64.14
50590;BME280;36547;50.514;30.840;2023-09-08T02:02:26;101130.69;;;11.98;64.11
50590;BME280;36547;50.514;30.840;2023-09-08T02:03:34;101125.36;;;11.98;64.15
50590;BME280;36547;50.514;30.840;2023-09-08T02:04:36;101124.58;;;11.96;64.28
50590;BME280;36547;50.514;30.840;2023-09-08T02:05:40;101129.05;;;11.96;64.35
50590;BME280;36547;50.514;30.840;2023-09-08T02:06:42;101126.56;;;11.91;64.30
50590;BME280;36547;50.514;30.840;2023-09-08T02:07:45;101126.56;;;11.91;64.33
50590;BME280;36547;50.514;30.840;2023-09-08T02:08:47;101124.83;;;11.90;64.39
50590;BME280;36547;50.514;30.840;2023-09-08T02:09:50;101125.81;;;11.88;64.39
50590;BME280;36547;50.514;30.840;2023-09-08T02:10:55;101124.95;;;11.87;64.26
50590;BME280;36547;50.514;30.840;2023-09-08T02:11:58;101122.50;;;11.83;64.16
50590;BME280;36547;50.514;30.840;2023-09-08T02:13:00;101121.63;;;11.82;64.12
50590;BME280;36547;50.514;30.840;2023-09-08T02:14:03;101125.06;;;11.84;64.26
50590;BME280;36547;50.514;30.840;2023-09-08T02:15:06;101124.14;;;11.85;64.23
50590;BME280;36547;50.514;30.840;2023-09-08T02:16:15;101115.16;;;11.88;64.47
50590;BME280;36547;50.514;30.840;2023-09-08T02:17:23;101116.44;;;11.99;64.67
50590;BME280;36547;50.514;30.840;2023-09-08T02:18:25;101119.89;;;11.81;64.87
50590;BME280;36547;50.514;30.840;2023-09-08T02:19:28;101122.55;;;11.81;64.88
50590;BME280;36547;50.514;30.840;2023-09-08T02:20:30;101118.22;;;11.79;64.79
50590;BME280;36547;50.514;30.840;2023-09-08T02:21:32;101125.34;;;11.78;64.70
50590;BME280;36547;50.514;30.840;2023-09-08T02:22:36;101120.02;;;11.78;64.72
50590;BME280;36547;50.514;30.840;2023-09-08T02:23:38;101121.87;;;11.76;64.72
50590;BME280;36547;50.514;30.840;2023-09-08T02:24:42;101114.69;;;11.78;64.59
50590;BME280;36547;50.514;30.840;2023-09-08T02:25:45;101114.77;;;11.75;64.50
50590;BME280;36547;50.514;30.840;2023-09-08T02:26:49;101112.08;;;11.77;64.62
50590;BME280;36547;50.514;30.840;2023-09-08T02:27:52;101113.88;;;11.76;64.68
50590;BME280;36547;50.514;30.840;2023-09-08T02:28:55;101119.23;;;11.75;64.76
50590;BME280;36547;50.514;30.840;2023-09-08T02:29:58;101113.91;;;11.75;64.72
50590;BME280;36547;50.514;30.840;2023-09-08T02:31:01;101117.41;;;11.77;64.72
50590;BME280;36547;50.514;30.840;2023-09-08T02:32:04;101114.77;;;11.75;64.72
50590;BME280;36547;50.514;30.840;2023-09-08T02:33:07;101105.91;;;11.75;64.75
50590;BME280;36547;50.514;30.840;2023-09-08T02:34:11;101113.03;;;11.74;64.85
50590;BME280;36547;50.514;30.840;2023-09-08T02:35:13;101110.48;;;11.71;64.91
50590;BME280;36547;50.514;30.840;2023-09-08T02:36:16;101106.09;;;11.70;64.94
50590;BME280;36547;50.514;30.840;2023-09-08T02:37:19;101105.31;;;11.68;64.92
50590;BME280;36547;50.514;30.840;2023-09-08T02:38:22;101113.30;;;11.68;64.95
50590;BME280;36547;50.514;30.840;2023-09-08T02:39:25;101104.36;;;11.69;64.94
50590;BME280;36547;50.514;30.840;2023-09-08T02:40:30;101114.23;;;11.67;65.00
50590;BME280;36547;50.514;30.840;2023-09-08T02:41:32;101111.69;;;11.64;65.12
50590;BME280;36547;50.514;30.840;2023-09-08T02:42:36;101108.09;;;11.65;64.94
50590;BME280;36547;50.514;30.840;2023-09-08T02:43:38;101106.36;;;11.64;64.87
50590;BME280;36547;50.514;30.840;2023-09-08T02:44:41;101107.29;;;11.63;64.90
50590;BME280;36547;50.514;30.840;2023-09-08T02:45:43;101104.63;;;11.63;64.97
50590;BME280;36547;50.514;30.840;2023-09-08T02:46:46;101108.22;;;11.62;64.97
50590;BME280;36547;50.514;30.840;2023-09-08T02:47:48;101098.49;;;11.61;64.87
50590;BME280;36547;50.514;30.840;2023-09-08T02:48:51;101099.42;;;11.60;64.81
50590;BME280;36547;50.514;30.840;2023-09-08T02:49:53;101106.48;;;11.61;64.79
50590;BME280;36547;50.514;30.840;2023-09-08T02:50:56;101105.79;;;11.56;64.96
50590;BME280;36547;50.514;30.840;2023-09-08T02:51:59;101107.52;;;11.57;65.02
50590;BME280;36547;50.514;30.840;2023-09-08T02:53:01;101111.00;;;11.59;65.09
50590;BME280;36547;50.514;30.840;2023-09-08T02:54:04;101113.66;;;11.59;65.14
50590;BME280;36547;50.514;30.840;2023-09-08T02:55:06;101108.45;;;11.56;65.29
50590;BME280;36547;50.514;30.840;2023-09-08T02:56:10;101111.11;;;11.56;65.31
50590;BME280;36547;50.514;30.840;2023-09-08T02:57:12;101112.91;;;11.55;65.35
50590;BME280;36547;50.514;30.840;2023-09-08T02:58:15;101106.72;;;11.55;65.26
50590;BME280;36547;50.514;30.840;2023-09-08T02:59:17;101112.04;;;11.55;65.23
50590;BME280;36547;50.514;30.840;2023-09-08T03:00:21;101112.04;;;11.55;65.15
50590;BME280;36547;50.514;30.840;2023-09-08T03:01:24;101110.45;;;11.51;65.33
50590;BME280;36547;50.514;30.840;2023-09-08T03:02:27;101117.52;;;11.52;65.29
50590;BME280;36547;50.514;30.840;2023-09-08T03:03:30;101109.38;;;11.55;65.17
50590;BME280;36547;50.514;30.840;2023-09-08T03:04:33;101115.66;;;11.54;65.38
50590;BME280;36547;50.514;30.840;2023-09-08T03:05:35;101112.19;;;11.52;65.50
50590;BME280;36547;50.514;30.840;2023-09-08T03:06:38;101113.06;;;11.52;65.44
50590;BME280;36547;50.514;30.840;2023-09-08T03:07:41;101114.05;;;11.50;65.54
50590;BME280;36547;50.514;30.840;2023-09-08T03:08:43;101121.22;;;11.48;65.60
50590;BME280;36547;50.514;30.840;2023-09-08T03:09:45;101120.34;;;11.47;65.48
50590;BME280;36547;50.514;30.840;2023-09-08T03:10:48;101119.48;;;11.47;65.35
50590;BME280;36547;50.514;30.840;2023-09-08T03:11:50;101116.98;;;11.42;65.24
50590;BME280;36547;50.514;30.840;2023-09-08T03:12:53;101118.67;;;11.45;65.34
50590;BME280;36547;50.514;30.840;2023-09-08T03:13:56;101115.14;;;11.44;65.58
50590;BME280;36547;50.514;30.840;2023-09-08T03:15:00;101115.08;;;11.46;65.70
50590;BME280;36547;50.514;30.840;2023-09-08T03:16:06;101117.86;;;11.43;65.80
50590;BME280;36547;50.514;30.840;2023-09-08T03:17:09;101119.59;;;11.44;65.92
50590;BME280;36547;50.514;30.840;2023-09-08T03:18:11;101117.05;;;11.41;65.88
50590;BME280;36547;50.514;30.840;2023-09-08T03:19:16;101119.71;;;11.41;65.70
50590;BME280;36547;50.514;30.840;2023-09-08T03:20:20;101121.59;;;11.39;65.48
50590;BME280;36547;50.514;30.840;2023-09-08T03:21:22;101112.80;;;11.37;65.57
50590;BME280;36547;50.514;30.840;2023-09-08T03:22:25;101116.33;;;11.37;65.60
50590;BME280;36547;50.514;30.840;2023-09-08T03:23:28;101120.73;;;11.38;65.78
50590;BME280;36547;50.514;30.840;2023-09-08T03:24:30;101110.20;;;11.35;65.66
50590;BME280;36547;50.514;30.840;2023-09-08T03:25:33;101115.41;;;11.38;65.81
50590;BME280;36547;50.514;30.840;2023-09-08T03:26:35;101121.70;;;11.36;65.96
50590;BME280;36547;50.514;30.840;2023-09-08T03:27:38;101124.25;;;11.39;65.94
50590;BME280;36547;50.514;30.840;2023-09-08T03:28:42;101118.13;;;11.37;65.93
50590;BME280;36547;50.514;30.840;2023-09-08T03:29:44;101116.50;;;11.32;65.90
50590;BME280;36547;50.514;30.840;2023-09-08T03:30:48;101120.95;;;11.32;65.71
50590;BME280;36547;50.514;30.840;2023-09-08T03:31:50;101116.61;;;11.29;65.59
50590;BME280;36547;50.514;30.840;2023-09-08T03:32:54;101113.02;;;11.30;65.50
50590;BME280;36547;50.514;30.840;2023-09-08T03:33:57;101116.61;;;11.29;65.59
50590;BME280;36547;50.514;30.840;2023-09-08T03:35:00;101116.61;;;11.29;65.54
50590;BME280;36547;50.514;30.840;2023-09-08T03:36:03;101109.55;;;11.28;65.70
50590;BME280;36547;50.514;30.840;2023-09-08T03:37:06;101120.20;;;11.28;66.01
50590;BME280;36547;50.514;30.840;2023-09-08T03:38:09;101114.87;;;11.28;66.13
50590;BME280;36547;50.514;30.840;2023-09-08T03:39:11;101111.23;;;11.31;66.21
50590;BME280;36547;50.514;30.840;2023-09-08T03:40:14;101118.23;;;11.33;66.20
50590;BME280;36547;50.514;30.840;2023-09-08T03:41:16;101119.97;;;11.34;66.24
50590;BME280;36547;50.514;30.840;2023-09-08T03:42:19;101117.48;;;11.30;66.30
50590;BME280;36547;50.514;30.840;2023-09-08T03:43:21;101114.77;;;11.31;66.25
50590;BME280;36547;50.514;30.840;2023-09-08T03:44:24;101116.50;;;11.32;66.33
50590;BME280;36547;50.514;30.840;2023-09-08T03:45:26;101114.77;;;11.31;66.42
50590;BME280;36547;50.514;30.840;2023-09-08T03:46:29;101109.44;;;11.31;66.46
50590;BME280;36547;50.514;30.840;2023-09-08T03:47:32;101109.44;;;11.31;66.34
50590;BME280;36547;50.514;30.840;2023-09-08T03:48:36;101115.63;;;11.32;66.29
50590;BME280;36547;50.514;30.840;2023-09-08T03:49:46;101105.05;;;11.30;66.54
50590;BME280;36547;50.514;30.840;2023-09-08T03:50:52;101109.50;;;11.30;66.56
50590;BME280;36547;50.514;30.840;2023-09-08T03:51:57;101111.29;;;11.29;66.50
50590;BME280;36547;50.514;30.840;2023-09-08T03:53:00;101109.33;;;11.34;66.49
50590;BME280;36547;50.514;30.840;2023-09-08T03:54:08;101107.59;;;11.33;66.73
50590;BME280;36547;50.514;30.840;2023-09-08T03:55:12;101107.59;;;11.33;66.74
50590;BME280;36547;50.514;30.840;2023-09-08T03:56:19;101104.93;;;11.33;66.77
50590;BME280;36547;50.514;30.840;2023-09-08T03:57:23;101105.74;;;11.36;66.75
50590;BME280;36547;50.514;30.840;2023-09-08T03:58:27;101101.28;;;11.36;66.82
50590;BME280;36547;50.514;30.840;2023-09-08T03:59:34;101108.28;;;11.39;66.82
50590;BME280;36547;50.514;30.840;2023-09-08T04:00:38;101106.55;;;11.38;66.89
50590;BME280;36547;50.514;30.840;2023-09-08T04:01:43;101105.63;;;11.39;66.96
50590;BME280;36547;50.514;30.840;2023-09-08T04:02:49;101102.04;;;11.40;66.97
50590;BME280;36547;50.514;30.840;2023-09-08T04:03:54;101098.42;;;11.41;67.12
50590;BME280;36547;50.514;30.840;2023-09-08T04:04:59;101101.08;;;11.41;67.13
50590;BME280;36547;50.514;30.840;2023-09-08T04:06:05;101101.89;;;11.43;67.33
50590;BME280;36547;50.514;30.840;2023-09-08T04:07:13;101100.03;;;11.45;67.24
50590;BME280;36547;50.514;30.840;2023-09-08T04:08:19;101098.19;;;11.47;67.41
50590;BME280;36547;50.514;30.840;2023-09-08T04:09:26;101103.39;;;11.50;67.28
50590;BME280;36547;50.514;30.840;2023-09-08T04:10:45;101098.19;;;11.47;67.39
50590;BME280;36547;50.514;30.840;2023-09-08T04:11:50;101095.34;;;11.51;67.40
50590;BME280;36547;50.514;30.840;2023-09-08T04:12:52;101100.61;;;11.53;67.55
50590;BME280;36547;50.514;30.840;2023-09-08T04:13:57;101108.59;;;11.53;67.58
50590;BME280;36547;50.514;30.840;2023-09-08T04:15:03;101101.54;;;11.52;67.79
50590;BME280;36547;50.514;30.840;2023-09-08T04:16:08;101107.52;;;11.57;67.78
50590;BME280;36547;50.514;30.840;2023-09-08T04:17:20;101107.47;;;11.58;67.83
50590;BME280;36547;50.514;30.840;2023-09-08T04:18:24;101101.03;;;11.64;67.56
50590;BME280;36547;50.514;30.840;2023-09-08T04:19:31;101106.25;;;11.67;67.65
50590;BME280;36547;50.514;30.840;2023-09-08T04:20:37;101104.36;;;11.69;67.51
50590;BME280;36547;50.514;30.840;2023-09-08T04:21:41;101101.58;;;11.72;67.34
50590;BME280;36547;50.514;30.840;2023-09-08T04:22:46;101109.45;;;11.75;67.42
50590;BME280;36547;50.514;30.840;2023-09-08T04:24:05;101113.03;;;11.74;67.77
50590;BME280;36547;50.514;30.840;2023-09-08T04:25:14;101105.70;;;11.81;67.62
50590;BME280;36547;50.514;30.840;2023-09-08T04:26:20;101102.98;;;11.82;67.60
50590;BME280;36547;50.514;30.840;2023-09-08T04:27:25;101112.67;;;11.83;67.85
50590;BME280;36547;50.514;30.840;2023-09-08T04:28:32;101097.50;;;11.85;67.49
50590;BME280;36547;50.514;30.840;2023-09-08T04:29:38;101103.52;;;11.90;67.63
50590;BME280;36547;50.514;30.840;2023-09-08T04:30:44;101106.12;;;11.92;67.58
50590;BME280;36547;50.514;30.840;2023-09-08T04:31:49;101105.07;;;11.96;67.66
50590;BME280;36547;50.514;30.840;2023-09-08T04:32:55;101107.80;;;11.94;67.75
50590;BME280;36547;50.514;30.840;2023-09-08T04:33:59;101107.64;;;11.97;67.72
50590;BME280;36547;50.514;30.840;2023-09-08T04:35:04;101107.45;;;12.02;67.60
50590;BME280;36547;50.514;30.840;2023-09-08T04:36:27;101102.00;;;12.05;67.28
50590;BME280;36547;50.514;30.840;2023-09-08T04:37:36;101107.95;;;12.12;67.36
50590;BME280;36547;50.514;30.840;2023-09-08T04:38:42;101105.94;;;12.17;66.71
50590;BME280;36547;50.514;30.840;2023-09-08T04:39:47;101103.95;;;12.22;67.33
50590;BME280;36547;50.514;30.840;2023-09-08T04:40:54;101109.16;;;12.25;66.86
50590;BME280;36547;50.514;30.840;2023-09-08T04:42:00;101101.87;;;12.28;67.33
50590;BME280;36547;50.514;30.840;2023-09-08T04:43:05;101103.54;;;12.31;67.25
50590;BME280;36547;50.514;30.840;2023-09-08T04:44:10;101099.08;;;12.31;67.59
50590;BME280;36547;50.514;30.840;2023-09-08T04:45:16;101097.15;;;12.35;67.65
50590;BME280;36547;50.514;30.840;2023-09-08T04:46:43;101096.96;;;12.39;67.46
50590;BME280;36547;50.514;30.840;2023-09-08T04:47:59;101099.47;;;12.43;67.20
50590;BME280;36547;50.514;30.840;2023-09-08T04:49:22;101097.60;;;12.45;66.73
50590;BME280;36547;50.514;30.840;2023-09-08T04:50:26;101098.27;;;12.50;65.65
50590;BME280;36547;50.514;30.840;2023-09-08T04:51:30;101102.61;;;12.52;65.64
50590;BME280;36547;50.514;30.840;2023-09-08T04:52:37;101104.18;;;12.56;65.88
50590;BME280;36547;50.514;30.840;2023-09-08T04:53:47;101107.52;;;12.61;65.58
50590;BME280;36547;50.514;30.840;2023-09-08T04:54:51;101102.98;;;12.63;66.26
50590;BME280;36547;50.514;30.840;2023-09-08T04:55:58;101103.79;;;12.65;65.31
50590;BME280;36547;50.514;30.840;2023-09-08T04:57:06;101098.16;;;12.71;64.83
50590;BME280;36547;50.514;30.840;2023-09-08T04:58:13;101097.96;;;12.76;65.11
50590;BME280;36547;50.514;30.840;2023-09-08T04:59:21;101092.43;;;12.81;64.83
50590;BME280;36547;50.514;30.840;2023-09-08T05:00:30;101094.80;;;12.87;64.51
50590;BME280;36547;50.514;30.840;2023-09-08T05:01:38;101093.66;;;12.92;64.21
50590;BME280;36547;50.514;30.840;2023-09-08T05:02:51;101100.52;;;12.98;65.34
50590;BME280;36547;50.514;30.840;2023-09-08T05:03:58;101092.28;;;13.02;64.44
50590;BME280;36547;50.514;30.840;2023-09-08T05:05:04;101089.48;;;13.05;64.63
50590;BME280;36547;50.514;30.840;2023-09-08T05:06:09;101097.21;;;13.12;63.84
50590;BME280;36547;50.514;30.840;2023-09-08T05:07:11;101096.07;;;13.17;63.59
50590;BME280;36547;50.514;30.840;2023-09-08T05:08:16;101095.86;;;13.22;63.28
50590;BME280;36547;50.514;30.840;2023-09-08T05:09:19;101095.79;;;13.23;63.37
50590;BME280;36547;50.514;30.840;2023-09-08T05:10:23;101095.66;;;13.26;63.36
50590;BME280;36547;50.514;30.840;2023-09-08T05:11:25;101098.88;;;13.33;62.80
50590;BME280;36547;50.514;30.840;2023-09-08T05:12:28;101096.86;;;13.38;62.77
50590;BME280;36547;50.514;30.840;2023-09-08T05:13:31;101093.95;;;13.42;62.65
50590;BME280;36547;50.514;30.840;2023-09-08T05:14:35;101100.81;;;13.48;62.75
50590;BME280;36547;50.514;30.840;2023-09-08T05:15:38;101089.98;;;13.51;62.66
50590;BME280;36547;50.514;30.840;2023-09-08T05:16:41;101097.78;;;13.56;62.77
50590;BME280;36547;50.514;30.840;2023-09-08T05:17:45;101089.52;;;13.60;62.85
50590;BME280;36547;50.514;30.840;2023-09-08T05:18:47;101093.71;;;13.66;62.88
50590;BME280;36547;50.514;30.840;2023-09-08T05:19:50;101094.33;;;13.71;63.47
50590;BME280;36547;50.514;30.840;2023-09-08T05:20:53;101094.98;;;13.76;63.33
50590;BME280;36547;50.514;30.840;2023-09-08T05:21:56;101092.95;;;13.81;63.25
50590;BME280;36547;50.514;30.840;2023-09-08T05:22:58;101096.23;;;13.86;63.82
50590;BME280;36547;50.514;30.840;2023-09-08T05:24:01;101092.48;;;13.90;64.06
50590;BME280;36547;50.514;30.840;2023-09-08T05:25:04;101090.45;;;13.95;64.35
50590;BME280;36547;50.514;30.840;2023-09-08T05:26:07;101088.39;;;14.00;64.64
50590;BME280;36547;50.514;30.840;2023-09-08T05:27:10;101093.59;;;14.03;65.22
50590;BME280;36547;50.514;30.840;2023-09-08T05:28:13;101087.94;;;14.09;64.91
50590;BME280;36547;50.514;30.840;2023-09-08T05:29:16;101085.01;;;14.14;64.81
50590;BME280;36547;50.514;30.840;2023-09-08T05:30:19;101082.97;;;14.19;64.78
50590;BME280;36547;50.514;30.840;2023-09-08T05:31:22;101077.40;;;14.24;64.88
50590;BME280;36547;50.514;30.840;2023-09-08T05:32:24;101078.87;;;14.29;64.85
50590;BME280;36547;50.514;30.840;2023-09-08T05:33:28;101075.17;;;14.32;64.93
50590;BME280;36547;50.514;30.840;2023-09-08T05:34:31;101077.54;;;14.38;64.93